Time;durP1;ratioP1;P1;durP2;ratioP2;P2;SDS_P1;SDS_P2;PMS_P1;PMS_P2;Temp;Humidity;BMP_temperature;BMP_pressure;BME280_temperature;BME280_humidity;BME280_pressure;Samples;Min_cycle;Max_cycle;Signal;HPM_P1;HPM_P2
2023/08/05 06:06:45;;;;;;;17.90;6.40;;;;;;;18.72;75.58;98625.09;112099;1229;94696;-89
2023/08/05 06:09:12;;;;;;;16.50;6.80;;;;;;;18.70;75.58;98616.90;109003;1236;107048;-89
2023/08/05 06:11:39;;;;;;;15.60;6.70;;;;;;;18.69;75.61;98593.98;108724;1238;96558;-90
2023/08/05 06:14:06;;;;;;;19.10;7.10;;;;;;;18.71;75.67;98571.69;109097;1232;97488;-90
2023/08/05 06:16:32;;;;;;;16.60;6.60;;;;;;;18.71;75.50;98553.94;109172;1236;96571;-90
2023/08/05 06:19:02;;;;;;;20.90;6.40;;;;;;;18.67;75.69;98544.90;109198;1231;95492;-91
2023/08/05 06:21:32;;;;;;;13.40;6.30;;;;;;;18.58;75.48;98531.84;109176;1236;96589;-90
2023/08/05 06:23:59;;;;;;;19.70;7.30;;;;;;;18.53;75.71;98524.40;109183;1236;96664;-90
2023/08/05 06:26:29;;;;;;;19.30;7.20;;;;;;;18.52;75.86;98540.16;109317;1235;96582;-91
2023/08/05 06:28:56;;;;;;;19.10;7.40;;;;;;;18.54;75.86;98542.23;109091;1237;109951;-91
2023/08/05 06:31:23;;;;;;;15.10;6.90;;;;;;;18.57;76.00;98530.77;109045;1238;96576;-90
2023/08/05 06:33:50;;;;;;;16.10;6.70;;;;;;;18.59;76.06;98517.90;109127;1232;96568;-91
2023/08/05 06:36:17;;;;;;;16.80;7.10;;;;;;;18.62;76.04;98500.55;109073;1237;97052;-90
2023/08/05 06:38:47;;;;;;;18.30;7.80;;;;;;;18.65;76.09;98488.55;109505;1230;96460;-89
2023/08/05 06:41:14;;;;;;;13.10;7.00;;;;;;;18.67;76.17;98494.77;109186;1240;109957;-90
2023/08/05 06:44:15;;;;;;;15.20;7.20;;;;;;;18.70;76.11;98496.27;109082;1232;96559;-90
2023/08/05 06:46:43;;;;;;;16.60;6.20;;;;;;;18.70;76.23;98490.05;108951;1238;107484;-90
2023/08/05 06:49:10;;;;;;;15.60;6.60;;;;;;;18.71;76.28;98477.64;108609;1234;96677;-90
2023/08/05 06:51:42;;;;;;;13.30;6.70;;;;;;;18.72;76.24;98495.48;109076;1236;96475;-90
2023/08/05 06:54:12;;;;;;;14.00;6.40;;;;;;;18.71;76.29;98495.45;108906;1234;109705;-90
2023/08/05 06:56:42;;;;;;;17.10;6.40;;;;;;;18.70;76.32;98491.88;108626;1235;96584;-91
2023/08/05 06:59:12;;;;;;;13.00;5.90;;;;;;;18.72;76.39;98488.31;108919;1236;107516;-89
2023/08/05 07:01:40;;;;;;;12.80;6.20;;;;;;;18.71;76.38;98487.10;108884;1237;97732;-89
2023/08/05 07:04:10;;;;;;;11.90;5.60;;;;;;;18.72;76.39;98472.78;109269;1232;96650;-90
2023/08/05 07:06:40;;;;;;;10.60;5.60;;;;;;;18.72;76.50;98469.17;109281;1234;109751;-90
2023/08/05 07:09:07;;;;;;;12.00;4.90;;;;;;;18.72;76.59;98478.91;109152;1238;96611;-90
2023/08/05 07:11:35;;;;;;;11.70;5.30;;;;;;;18.73;76.63;98476.27;109199;1239;96490;-91
2023/08/05 07:14:02;;;;;;;18.70;6.50;;;;;;;18.75;76.65;98461.91;109493;1234;96562;-90
2023/08/05 07:16:30;;;;;;;12.70;5.50;;;;;;;18.76;76.72;98446.64;109558;1233;96781;-90
2023/08/05 07:19:04;;;;;;;12.40;5.40;;;;;;;18.79;76.71;98442.25;109513;1234;109754;-90
2023/08/05 07:21:31;;;;;;;10.30;5.40;;;;;;;18.80;76.72;98439.71;109128;1233;96504;-90
2023/08/05 07:24:41;;;;;;;12.10;5.80;;;;;;;18.83;76.81;98431.92;109468;1238;96720;-91
2023/08/05 07:28:15;;;;;;;10.90;4.90;;;;;;;18.83;76.86;98412.70;109480;1235;96483;-90
2023/08/05 07:31:27;;;;;;;8.90;5.00;;;;;;;18.84;76.98;98407.91;109385;1238;96480;-91
2023/08/05 07:34:09;;;;;;;9.10;4.30;;;;;;;18.88;77.02;98393.59;109096;1233;109751;-91
2023/08/05 07:37:14;;;;;;;9.70;4.50;;;;;;;18.90;77.05;98380.45;109381;1234;96700;-90
2023/08/05 07:39:47;;;;;;;10.70;4.90;;;;;;;18.91;77.00;98393.52;109118;1233;107623;-90
2023/08/05 07:42:15;;;;;;;11.30;4.90;;;;;;;18.93;76.99;98412.04;109191;1239;96555;-90
2023/08/05 07:44:46;;;;;;;9.20;4.60;;;;;;;18.95;77.06;98435.98;109122;1238;96660;-91
2023/08/05 07:47:13;;;;;;;10.10;4.90;;;;;;;18.99;77.15;98452.91;109076;1239;109660;-90
2023/08/05 07:50:22;;;;;;;16.30;5.00;;;;;;;19.01;77.16;98462.65;109625;1239;96642;-91
2023/08/05 07:52:56;;;;;;;10.30;4.10;;;;;;;19.04;77.32;98444.67;110436;1233;106127;-89
2023/08/05 07:55:25;;;;;;;8.40;4.30;;;;;;;19.07;77.26;98436.63;109795;1236;97828;-91
2023/08/05 08:01:42;;;;;;;11.50;4.70;;;;;;;19.08;77.35;98402.98;109351;1236;109770;-89
2023/08/05 08:04:30;;;;;;;13.30;4.70;;;;;;;19.08;77.33;98430.43;109304;1237;97077;-90
2023/08/05 08:06:59;;;;;;;10.00;4.80;;;;;;;19.10;77.41;98459.52;108923;1233;107431;-91
2023/08/05 08:09:26;;;;;;;9.80;4.60;;;;;;;19.10;77.45;98502.75;108901;1234;96747;-90
2023/08/05 08:11:57;;;;;;;9.30;4.80;;;;;;;19.12;77.46;98527.83;109302;1233;96496;-91
2023/08/05 08:15:07;;;;;;;11.80;5.70;;;;;;;19.15;77.55;98532.94;109393;1238;109974;-92
2023/08/05 08:17:46;;;;;;;11.50;4.80;;;;;;;19.13;77.55;98511.18;109421;1234;96515;-91
2023/08/05 08:20:42;;;;;;;7.10;4.20;;;;;;;19.14;77.83;98502.89;109505;1236;106268;-92
2023/08/05 08:23:12;;;;;;;14.30;5.20;;;;;;;19.12;77.78;98489.83;109212;1239;97404;-91
2023/08/05 08:25:43;;;;;;;11.50;5.20;;;;;;;19.09;77.73;98467.45;109299;1239;96588;-90
2023/08/05 08:28:13;;;;;;;12.60;5.70;;;;;;;19.10;77.72;98456.79;109229;1239;109793;-91
2023/08/05 09:00:45;;;;;;;21.20;10.90;;;;;;;20.05;78.12;98416.80;110000;1230;109548;-91
2023/08/05 09:03:14;;;;;;;14.70;6.70;;;;;;;20.09;78.04;98446.09;109180;1236;96495;-92
2023/08/05 09:17:38;;;;;;;11.00;5.20;;;;;;;20.00;78.19;98503.85;112120;1228;96016;-91
2023/08/05 09:24:42;;;;;;;10.30;5.30;;;;;;;20.29;78.37;98474.62;109329;1238;96467;-91
2023/08/05 09:33:43;;;;;;;10.80;4.20;;;;;;;20.69;78.53;98500.52;111912;1230;94501;-91
2023/08/05 09:36:32;;;;;;;17.40;5.50;;;;;;;20.68;78.17;98436.89;109919;1234;107927;-91
2023/08/05 09:42:45;;;;;;;9.40;4.10;;;;;;;20.19;78.05;98362.42;109872;1230;96472;-91
2023/08/05 10:49:09;;;;;;;15.00;8.10;;;;;;;20.90;78.62;98329.14;112108;1228;94429;-89
2023/08/05 10:51:39;;;;;;;16.60;8.60;;;;;;;20.91;78.98;98361.25;109313;1233;107923;-91
2023/08/05 11:12:02;;;;;;;13.50;7.50;;;;;;;21.45;78.98;98319.33;111233;1230;94631;-92
2023/08/05 11:14:53;;;;;;;14.60;7.60;;;;;;;21.57;79.00;98320.48;109541;1230;109810;-91
2023/08/05 11:20:46;;;;;;;;;;;;;;;;;;;;;
2023/08/05 11:23:25;;;;;;;14.00;7.50;;;;;;;21.94;79.12;98325.59;109332;1236;97383;-91
2023/08/05 11:26:05;;;;;;;;;;;;;;;;;;;;;
2023/08/05 11:28:45;;;;;;;15.10;7.40;;;;;;;22.17;79.20;98326.23;109372;1238;109703;-90
2023/08/05 11:31:37;;;;;;;15.00;7.00;;;;;;;22.23;79.13;98315.44;109421;1237;96523;-91
2023/08/05 11:34:04;;;;;;;14.00;6.70;;;;;;;22.29;79.18;98305.86;109506;1238;107575;-91
2023/08/05 11:36:31;;;;;;;11.10;6.20;;;;;;;22.38;78.96;98300.75;109409;1230;96510;-90
2023/08/05 11:39:00;;;;;;;12.60;5.70;;;;;;;22.44;79.07;98297.70;109601;1236;96507;-90
2023/08/05 11:41:31;;;;;;;10.80;5.40;;;;;;;22.50;79.23;98295.91;109415;1237;109505;-91
2023/08/05 11:43:59;;;;;;;11.30;5.20;;;;;;;22.59;78.95;98295.88;109316;1237;96627;-90
2023/08/05 11:46:29;;;;;;;10.10;5.50;;;;;;;22.70;79.02;98285.60;109264;1230;107508;-90
2023/08/05 11:49:15;;;;;;;8.20;4.70;;;;;;;22.80;79.13;98272.58;109004;1238;96576;-91
2023/08/05 11:51:53;;;;;;;9.20;4.90;;;;;;;22.85;78.80;98263.44;109282;1232;97888;-91
2023/08/05 11:54:26;;;;;;;8.10;4.50;;;;;;;22.86;78.72;98260.61;109218;1236;109814;-91
2023/08/05 11:56:53;;;;;;;8.00;4.80;;;;;;;22.87;78.82;98259.86;109419;1244;96610;-90
2023/08/05 11:59:46;;;;;;;8.50;4.70;;;;;;;22.89;78.83;98263.23;109023;1230;106913;-92
2023/08/05 12:02:52;;;;;;;7.70;4.70;;;;;;;22.99;78.99;98271.39;109168;1238;97717;-91
2023/08/05 12:05:20;;;;;;;8.40;4.40;;;;;;;23.07;78.92;98261.02;109082;1232;96540;-91
2023/08/05 12:07:48;;;;;;;10.00;4.70;;;;;;;23.17;78.95;98264.84;109409;1232;111876;-90
2023/08/05 12:10:19;;;;;;;6.90;4.30;;;;;;;23.26;78.76;98259.41;109382;1237;96738;-89
2023/08/05 12:12:49;;;;;;;7.90;4.40;;;;;;;23.33;78.68;98264.73;109943;1230;107368;-90
2023/08/05 12:15:32;;;;;;;6.10;4.10;;;;;;;23.38;78.62;98264.38;110060;1236;96471;-91
2023/08/05 12:18:03;;;;;;;6.90;4.10;;;;;;;23.44;78.58;98268.28;109272;1236;96591;-91
2023/08/05 12:20:50;;;;;;;7.40;4.40;;;;;;;23.50;78.69;98265.99;109298;1232;109982;-91
2023/08/05 12:23:20;;;;;;;7.60;4.30;;;;;;;23.58;78.66;98259.70;109240;1237;96606;-91
2023/08/05 12:25:50;;;;;;;6.60;4.10;;;;;;;23.68;78.60;98256.10;109310;1237;107739;-91
2023/08/05 12:32:18;;;;;;;8.40;4.60;;;;;;;23.95;78.59;98253.36;109554;1232;96440;-92
2023/08/05 12:34:48;;;;;;;6.10;4.30;;;;;;;24.04;78.50;98249.45;109509;1237;109713;-91
2023/08/05 12:37:41;;;;;;;8.60;4.40;;;;;;;24.11;78.36;98248.80;109354;1237;96478;-91
2023/08/05 12:40:13;;;;;;;6.30;4.20;;;;;;;24.17;78.40;98247.67;109312;1234;107487;-91
2023/08/05 12:42:46;;;;;;;8.90;4.40;;;;;;;24.23;78.29;98246.95;109217;1237;96515;-91
2023/08/05 12:45:13;;;;;;;8.00;5.00;;;;;;;24.24;78.16;98245.79;109397;1237;96480;-90
2023/08/05 12:47:40;;;;;;;17.10;7.60;;;;;;;24.26;78.21;98248.56;109400;1232;96563;-90
2023/08/05 12:50:11;;;;;;;6.30;4.50;;;;;;;24.30;78.13;98249.00;109452;1240;96700;-90
2023/08/05 12:52:39;;;;;;;12.50;5.10;;;;;;;24.32;78.10;98253.34;109756;1234;107352;-91
2023/08/05 12:55:09;;;;;;;6.90;4.40;;;;;;;24.34;78.06;98245.45;109388;1231;96505;-91
2023/08/05 12:57:42;;;;;;;;;;;;;;;24.37;78.07;98242.46;109971;1232;96485;-91
2023/08/05 13:00:14;;;;;;;6.40;4.10;;;;;;;24.38;78.01;98231.46;110029;1234;108943;-91
2023/08/05 13:02:45;;;;;;;7.90;4.50;;;;;;;24.39;77.89;98228.50;109320;1237;96577;-90
2023/08/05 13:05:13;;;;;;;6.20;4.00;;;;;;;24.39;77.94;98227.95;109193;1237;107487;-89
2023/08/05 13:07:40;;;;;;;9.60;5.10;;;;;;;24.42;78.05;98223.48;109263;1232;96663;-91
2023/08/05 13:10:08;;;;;;;7.20;4.20;;;;;;;24.45;77.77;98219.78;109476;1237;96446;-91
2023/08/05 13:12:36;;;;;;;7.70;4.50;;;;;;;24.44;77.67;98220.84;109407;1232;109469;-91
2023/08/05 13:15:05;;;;;;;8.10;4.50;;;;;;;24.42;77.51;98217.67;109366;1232;96574;-91
2023/08/05 13:17:32;;;;;;;10.10;5.00;;;;;;;24.44;77.66;98219.30;109555;1237;107215;-91
2023/08/05 13:20:00;;;;;;;7.20;4.70;;;;;;;24.46;77.69;98215.62;109407;1237;96659;-90
2023/08/05 13:22:27;;;;;;;7.70;5.30;;;;;;;24.53;77.84;98212.40;109503;1232;96679;-89
2023/08/05 13:24:59;;;;;;;8.50;5.20;;;;;;;24.61;77.73;98210.98;109589;1232;109805;-91
2023/08/05 13:27:27;;;;;;;7.50;5.00;;;;;;;24.69;77.73;98209.65;109514;1232;96669;-91
2023/08/05 13:30:00;;;;;;;8.20;5.00;;;;;;;24.78;77.78;98209.25;109342;1231;106677;-91
2023/08/05 13:33:02;;;;;;;10.70;5.80;;;;;;;24.87;77.60;98201.23;109620;1234;96557;-92
2023/08/05 13:35:32;;;;;;;10.90;6.00;;;;;;;24.97;77.55;98199.30;109882;1232;96484;-92
2023/08/05 13:41:25;;;;;;;9.40;5.70;;;;;;;25.15;77.39;98188.91;109895;1234;97492;-93
2023/08/05 13:43:54;;;;;;;15.50;5.90;;;;;;;25.21;77.43;98187.59;109584;1238;107512;-91
2023/08/05 13:46:23;;;;;;;11.50;5.60;;;;;;;25.25;77.28;98185.30;109575;1231;96509;-92
2023/08/05 13:52:29;;;;;;;11.80;5.90;;;;;;;25.25;76.87;98176.15;109934;1232;109225;-92
2023/08/05 13:54:56;;;;;;;11.10;6.40;;;;;;;25.29;77.13;98173.04;109719;1237;96495;-91
2023/08/05 13:58:08;;;;;;;12.30;6.90;;;;;;;25.32;77.02;98171.40;109345;1232;107618;-91
2023/08/05 14:00:37;;;;;;;14.10;7.60;;;;;;;25.34;76.82;98168.48;109487;1236;96603;-90
2023/08/05 14:03:04;;;;;;;12.40;6.60;;;;;;;25.37;76.82;98163.85;109377;1236;96620;-92
2023/08/05 14:05:44;;;;;;;12.40;6.70;;;;;;;25.39;76.76;98162.39;109807;1236;96555;-91
2023/08/05 14:09:07;;;;;;;12.30;7.10;;;;;;;25.40;76.68;98160.83;110113;1237;96587;-91
2023/08/05 14:11:54;;;;;;;11.80;6.50;;;;;;;25.40;76.54;98160.08;110252;1231;107650;-91
2023/08/05 14:36:57;;;;;;;14.30;7.60;;;;;;;25.66;75.53;98137.80;108729;1257;94208;-93
2023/08/05 14:39:24;;;;;;;17.50;9.10;;;;;;;25.66;75.61;98132.90;108604;1244;107255;-93
2023/08/05 14:41:51;;;;;;;15.60;8.50;;;;;;;25.66;75.49;98131.81;108429;1247;94343;-93
2023/08/05 14:44:19;;;;;;;15.00;8.50;;;;;;;25.64;75.40;98126.25;108774;1244;94713;-93
2023/08/05 14:46:46;;;;;;;16.20;9.20;;;;;;;25.62;75.40;98124.25;108999;1235;94166;-91
2023/08/05 14:49:14;;;;;;;15.10;8.80;;;;;;;25.60;75.31;98116.58;109550;1243;94348;-92
2023/08/05 14:52:01;;;;;;;19.50;9.30;;;;;;;25.56;75.34;98114.84;109685;1231;94301;-92
2023/08/05 14:54:34;;;;;;;18.40;10.20;;;;;;;25.54;75.12;98111.69;109644;1233;94289;-91
2023/08/05 14:57:01;;;;;;;18.80;10.20;;;;;;;25.56;75.37;98106.23;110192;1234;95180;-92
2023/08/05 14:59:28;;;;;;;19.10;10.90;;;;;;;25.57;75.12;98100.65;109879;1231;95186;-94
2023/08/05 15:01:56;;;;;;;21.10;10.20;;;;;;;25.58;75.11;98095.11;109996;1235;95229;-91
2023/08/05 15:04:23;;;;;;;19.10;10.70;;;;;;;25.57;75.21;98094.61;109799;1236;95113;-92
2023/08/05 15:06:50;;;;;;;21.90;11.00;;;;;;;25.57;75.18;98091.29;109733;1234;95357;-92
2023/08/05 15:09:17;;;;;;;38.20;18.10;;;;;;;25.55;75.14;98088.69;109313;1231;96263;-91
2023/08/05 15:11:44;;;;;;;20.20;10.80;;;;;;;25.53;75.14;98087.59;109799;1231;95215;-91
2023/08/05 15:14:11;;;;;;;19.50;10.40;;;;;;;25.51;75.08;98089.98;109497;1231;95136;-92
2023/08/05 15:16:38;;;;;;;22.20;10.80;;;;;;;25.47;74.99;98092.24;109752;1231;96101;-93
2023/08/05 15:19:05;;;;;;;18.10;10.20;;;;;;;25.47;75.09;98091.75;109901;1235;107474;-92
2023/08/05 15:21:32;;;;;;;17.60;9.00;;;;;;;25.46;74.98;98087.70;109619;1230;95232;-93
2023/08/05 15:24:00;;;;;;;18.20;12.00;;;;;;;25.45;75.00;98082.70;109634;1231;95149;-92
2023/08/05 15:26:27;;;;;;;19.70;11.10;;;;;;;25.42;74.85;98081.38;109494;1232;95298;-92
2023/08/05 15:28:54;;;;;;;18.10;10.60;;;;;;;25.40;74.84;98085.45;109447;1231;95146;-92
2023/08/05 15:31:21;;;;;;;18.70;10.90;;;;;;;25.39;74.87;98084.42;109699;1230;95638;-91
2023/08/05 15:33:47;;;;;;;18.80;11.30;;;;;;;25.37;74.89;98078.39;109453;1235;95217;-92
2023/08/05 15:36:16;;;;;;;18.20;10.30;;;;;;;25.34;74.84;98072.60;109570;1237;95120;-91
2023/08/05 15:38:43;;;;;;;20.80;11.60;;;;;;;25.31;74.88;98073.54;110035;1231;95270;-92
2023/08/05 15:41:11;;;;;;;18.60;11.10;;;;;;;25.26;75.03;98073.77;109204;1238;95292;-91
2023/08/05 15:43:37;;;;;;;19.90;11.80;;;;;;;25.25;74.87;98075.48;109410;1231;95261;-92
2023/08/05 15:46:06;;;;;;;21.10;12.10;;;;;;;25.23;74.89;98074.63;109139;1236;95142;-92
2023/08/05 15:48:33;;;;;;;19.10;10.40;;;;;;;25.21;74.84;98073.52;109448;1235;95239;-92
2023/08/05 15:51:05;;;;;;;21.40;10.30;;;;;;;25.14;74.70;98075.49;109098;1237;95161;-92
2023/08/05 15:53:32;;;;;;;14.80;8.70;;;;;;;25.02;74.77;98076.50;109189;1232;95117;-92
2023/08/05 15:56:25;;;;;;;17.20;9.70;;;;;;;24.93;74.78;98075.31;109849;1236;107544;-93
2023/08/05 15:58:53;;;;;;;19.80;11.10;;;;;;;24.79;74.79;98079.17;109883;1236;95639;-91
2023/08/05 16:01:19;;;;;;;19.50;10.30;;;;;;;24.72;74.97;98079.67;109300;1231;95311;-92
2023/08/05 16:03:47;;;;;;;24.10;10.70;;;;;;;24.71;74.95;98077.07;109543;1235;95740;-92
2023/08/05 16:06:14;;;;;;;17.60;9.80;;;;;;;24.71;74.92;98076.93;109560;1237;96122;-91
2023/08/05 16:08:41;;;;;;;18.40;10.40;;;;;;;24.69;75.00;98074.95;109606;1231;95127;-92
2023/08/05 16:11:12;;;;;;;18.30;10.60;;;;;;;24.65;74.86;98077.52;109442;1235;95208;-91
2023/08/05 16:13:42;;;;;;;19.00;10.90;;;;;;;24.58;75.00;98079.69;109665;1235;95119;-93
2023/08/05 16:16:20;;;;;;;17.80;10.60;;;;;;;24.53;74.98;98078.66;109601;1231;107965;-92
2023/08/05 16:18:47;;;;;;;18.70;10.80;;;;;;;24.46;74.94;98076.78;109612;1232;95164;-91
2023/08/05 16:21:21;;;;;;;18.00;10.20;;;;;;;24.42;75.13;98073.67;109638;1231;95230;-92
2023/08/05 16:23:53;;;;;;;17.50;10.70;;;;;;;24.42;75.23;98073.55;109531;1236;95223;-90
2023/08/05 16:26:22;;;;;;;18.60;10.60;;;;;;;24.40;75.25;98070.73;109467;1231;95195;-92
2023/08/05 16:28:49;;;;;;;18.00;10.30;;;;;;;24.38;75.22;98061.71;109634;1231;108910;-92
2023/08/05 16:31:23;;;;;;;30.50;11.70;;;;;;;24.38;75.19;98059.04;109953;1237;95363;-92
2023/08/05 16:33:51;;;;;;;16.30;10.00;;;;;;;24.37;75.29;98056.67;110274;1236;107177;-92
2023/08/05 16:36:22;;;;;;;20.70;11.90;;;;;;;24.38;75.26;98054.70;110343;1234;95284;-92
2023/08/05 16:38:50;;;;;;;19.10;10.50;;;;;;;24.36;75.32;98046.83;109858;1230;94296;-92
2023/08/05 16:41:17;;;;;;;17.40;10.70;;;;;;;24.35;75.45;98049.79;109834;1232;108386;-91
